createdAt,value
2023-03-30T00:01:15.416Z,76.52
2023-03-30T00:03:49.385Z,76.24
2023-03-30T00:06:23.205Z,76.30
2023-03-30T00:08:58.183Z,76.10
2023-03-30T00:11:34.347Z,75.70
2023-03-30T00:14:07.100Z,75.79
2023-03-30T00:16:41.461Z,75.67
2023-03-30T00:19:14.306Z,75.63
2023-03-30T00:21:47.721Z,75.33
2023-03-30T00:24:20.459Z,75.28
2023-03-30T00:26:53.114Z,74.82
2023-03-30T00:29:25.989Z,74.84
2023-03-30T00:32:00.072Z,75.25
2023-03-30T00:34:33.040Z,75.51
2023-03-30T00:37:05.723Z,76.22
2023-03-30T00:39:38.425Z,76.61
2023-03-30T00:42:15.029Z,76.36
2023-03-30T00:45:06.423Z,76.79
2023-03-30T00:47:43.089Z,77.63
2023-03-30T00:50:16.961Z,77.21
2023-03-30T00:52:53.583Z,77.13
2023-03-30T00:55:29.152Z,77.47
2023-03-30T00:58:02.504Z,78.19
2023-03-30T01:00:38.500Z,77.72
2023-03-30T01:03:17.633Z,77.78
2023-03-30T01:05:50.535Z,77.53
2023-03-30T01:08:24.180Z,77.01
2023-03-30T01:10:56.868Z,77.01
2023-03-30T01:13:30.021Z,76.59
2023-03-30T01:16:07.924Z,76.68
2023-03-30T01:18:49.512Z,76.64
2023-03-30T01:21:46.355Z,76.84
2023-03-30T01:24:49.142Z,76.73
2023-03-30T01:27:39.235Z,77.47
2023-03-30T01:30:20.813Z,78.23
2023-03-30T01:33:06.420Z,78.21
2023-03-30T01:35:58.904Z,78.02
2023-03-30T01:38:46.653Z,78.12
2023-03-30T01:41:30.058Z,79.04
2023-03-30T01:44:06.757Z,79.75
2023-03-30T01:46:42.471Z,79.64
2023-03-30T01:49:17.240Z,78.60
2023-03-30T01:51:53.882Z,79.30
2023-03-30T01:54:29.339Z,80.15
2023-03-30T01:57:06.143Z,79.96
2023-03-30T01:59:41.861Z,80.25
2023-03-30T02:02:16.853Z,80.59
2023-03-30T02:04:50.079Z,80.01
2023-03-30T02:07:24.430Z,79.11
2023-03-30T02:09:59.351Z,78.56
2023-03-30T02:12:34.079Z,78.28
2023-03-30T02:15:10.537Z,77.89
2023-03-30T02:17:46.179Z,78.25
2023-03-30T02:20:19.515Z,77.31
2023-03-30T02:22:52.538Z,77.24
2023-03-30T02:25:25.161Z,77.00
2023-03-30T02:27:59.874Z,77.37
2023-03-30T02:30:34.138Z,78.01
2023-03-30T02:33:07.808Z,77.66
2023-03-30T02:35:51.494Z,77.64
2023-03-30T02:38:38.261Z,77.68
2023-03-30T02:41:16.616Z,77.37
2023-03-30T02:43:56.682Z,76.84
2023-03-30T02:46:45.127Z,76.92
2023-03-30T02:49:21.624Z,76.37
2023-03-30T02:51:55.929Z,76.37
2023-03-30T02:54:33.459Z,76.20
2023-03-30T02:57:08.866Z,76.56
2023-03-30T02:59:48.200Z,76.47
2023-03-30T03:02:23.233Z,76.46
2023-03-30T03:04:56.197Z,76.52
2023-03-30T03:07:32.279Z,76.37
2023-03-30T03:10:06.371Z,76.17
2023-03-30T03:12:39.300Z,76.37
2023-03-30T03:15:14.081Z,76.14
2023-03-30T03:17:47.007Z,76.45
2023-03-30T03:20:20.091Z,76.93
2023-03-30T03:22:52.736Z,76.96
2023-03-30T03:25:25.392Z,77.17
2023-03-30T03:27:58.791Z,77.11
2023-03-30T03:30:33.035Z,77.70
2023-03-30T03:33:05.789Z,78.08
2023-03-30T03:35:39.732Z,78.41
2023-03-30T03:38:12.437Z,79.13
2023-03-30T03:40:45.133Z,78.83
2023-03-30T03:43:17.904Z,79.09
2023-03-30T03:45:52.631Z,79.03
2023-03-30T03:48:26.040Z,79.04
2023-03-30T03:50:59.522Z,79.10
2023-03-30T03:53:32.535Z,79.51
2023-03-30T03:56:05.352Z,79.39
2023-03-30T03:58:38.002Z,79.41
2023-03-30T04:01:14.604Z,79.09
2023-03-30T04:03:47.435Z,78.78
2023-03-30T04:06:20.247Z,78.91
2023-03-30T04:08:53.403Z,78.71
2023-03-30T04:11:27.551Z,78.71
2023-03-30T04:14:00.486Z,78.38
2023-03-30T04:16:34.719Z,78.36
2023-03-30T04:19:09.211Z,78.75
2023-03-30T04:21:47.153Z,78.47
2023-03-30T04:24:20.197Z,78.23
2023-03-30T04:26:53.771Z,77.34
2023-03-30T04:29:26.509Z,77.28
2023-03-30T04:32:03.707Z,77.42
2023-03-30T04:34:36.841Z,77.26
2023-03-30T04:37:09.784Z,75.39
2023-03-30T04:39:44.034Z,76.13
2023-03-30T04:42:20.576Z,76.08
2023-03-30T04:44:53.230Z,76.10
2023-03-30T04:47:27.981Z,76.54
2023-03-30T04:50:01.113Z,75.74
2023-03-30T04:52:33.896Z,76.20
2023-03-30T04:55:07.086Z,74.69
2023-03-30T04:57:39.865Z,76.15
2023-03-30T05:00:13.914Z,75.95
2023-03-30T05:02:48.107Z,76.07
2023-03-30T05:05:20.906Z,76.21
2023-03-30T05:07:54.192Z,76.33
2023-03-30T05:10:26.947Z,76.24
2023-03-30T05:12:59.713Z,76.55
2023-03-30T05:15:32.362Z,76.11
2023-03-30T05:18:06.787Z,76.55
2023-03-30T05:20:39.860Z,76.39
2023-03-30T05:23:12.581Z,76.63
2023-03-30T05:25:46.472Z,76.49
2023-03-30T05:28:19.440Z,76.85
2023-03-30T05:30:54.301Z,77.07
2023-03-30T05:33:28.427Z,77.07
2023-03-30T05:36:01.209Z,77.47
2023-03-30T05:38:33.986Z,77.54
2023-03-30T05:41:06.949Z,77.38
2023-03-30T05:43:39.737Z,77.75
2023-03-30T05:46:12.490Z,77.78
2023-03-30T05:48:46.535Z,77.71
2023-03-30T05:51:19.206Z,77.86
2023-03-30T05:53:52.403Z,77.61
2023-03-30T05:56:25.244Z,77.86
2023-03-30T05:58:58.094Z,77.79
2023-03-30T06:01:30.836Z,77.71
2023-03-30T06:04:05.529Z,78.17
2023-03-30T06:06:38.320Z,78.00
2023-03-30T06:09:11.590Z,78.03
2023-03-30T06:11:44.231Z,78.00
2023-03-30T06:14:17.371Z,78.28
2023-03-30T06:16:50.282Z,78.26
2023-03-30T06:19:24.460Z,78.61
2023-03-30T06:21:57.292Z,78.37
2023-03-30T06:24:30.264Z,78.32
2023-03-30T06:27:03.441Z,78.59
2023-03-30T06:29:38.673Z,78.65
2023-03-30T06:32:11.872Z,78.94
2023-03-30T06:34:46.445Z,79.35
2023-03-30T06:37:19.566Z,79.50
2023-03-30T06:39:52.735Z,79.31
2023-03-30T06:42:27.464Z,79.45
2023-03-30T06:45:01.094Z,79.18
2023-03-30T06:47:33.825Z,78.84
2023-03-30T06:50:08.681Z,78.89
2023-03-30T06:52:41.438Z,78.77
2023-03-30T06:55:14.446Z,78.52
2023-03-30T06:57:47.308Z,78.67
2023-03-30T07:00:20.540Z,78.27
2023-03-30T07:02:53.260Z,77.76
2023-03-30T07:05:29.142Z,76.36
2023-03-30T07:08:01.984Z,77.12
2023-03-30T07:10:35.025Z,77.01
2023-03-30T07:13:08.910Z,77.14
2023-03-30T07:15:41.943Z,77.28
2023-03-30T07:18:14.968Z,77.51
2023-03-30T07:20:49.229Z,78.46
2023-03-30T07:23:22.581Z,78.42
2023-03-30T07:25:55.412Z,78.60
2023-03-30T07:28:28.200Z,78.79
2023-03-30T07:31:07.086Z,78.42
2023-03-30T07:33:40.062Z,79.05
2023-03-30T07:36:14.260Z,79.16
2023-03-30T07:38:47.699Z,79.72
2023-03-30T07:41:21.295Z,79.56
2023-03-30T07:43:53.999Z,79.09
2023-03-30T07:46:26.943Z,80.48
2023-03-30T07:48:59.883Z,81.69
2023-03-30T07:51:34.656Z,81.55
2023-03-30T07:54:07.356Z,81.58
2023-03-30T07:56:42.946Z,81.32
2023-03-30T07:59:15.717Z,81.89
2023-03-30T08:01:50.505Z,82.28
2023-03-30T08:04:26.416Z,82.07
2023-03-30T08:07:01.386Z,81.38
2023-03-30T08:09:34.243Z,81.94
2023-03-30T08:12:07.503Z,82.31
2023-03-30T08:14:40.271Z,80.81
2023-03-30T08:17:13.616Z,82.31
2023-03-30T08:19:46.311Z,80.88
2023-03-30T08:22:21.137Z,81.33
2023-03-30T08:24:53.860Z,81.36
2023-03-30T08:27:26.681Z,81.40
2023-03-30T08:29:59.496Z,80.44
2023-03-30T08:32:32.369Z,80.06
2023-03-30T08:35:05.324Z,80.79
2023-03-30T08:37:39.599Z,81.00
2023-03-30T08:40:12.935Z,81.57
2023-03-30T08:43:06.911Z,82.55
2023-03-30T08:45:42.688Z,81.93
2023-03-30T08:48:18.096Z,79.35
2023-03-30T08:50:55.979Z,78.78
2023-03-30T08:53:31.049Z,78.64
2023-03-30T08:56:07.787Z,78.62
2023-03-30T08:58:44.762Z,77.92
2023-03-30T09:01:20.113Z,74.32
2023-03-30T09:04:03.225Z,75.47
2023-03-30T09:06:43.472Z,77.61
2023-03-30T09:09:19.328Z,76.90
2023-03-30T09:11:55.334Z,78.10
2023-03-30T09:14:33.378Z,77.87
2023-03-30T09:17:09.773Z,79.32
2023-03-30T09:19:47.566Z,77.81
2023-03-30T09:22:21.834Z,75.75
2023-03-30T09:24:56.249Z,75.08
2023-03-30T09:27:34.144Z,72.78
2023-03-30T09:30:16.740Z,74.04
2023-03-30T09:32:54.745Z,72.31
2023-03-30T09:35:29.797Z,72.12
2023-03-30T09:38:04.076Z,70.83
2023-03-30T09:40:45.598Z,72.51
2023-03-30T09:43:21.095Z,73.02
2023-03-30T09:45:53.851Z,72.85
2023-03-30T09:48:26.552Z,69.55
2023-03-30T09:50:59.812Z,67.61
2023-03-30T09:53:35.752Z,69.64
2023-03-30T09:56:11.436Z,65.65
2023-03-30T09:58:44.183Z,68.25
2023-03-30T10:01:18.477Z,70.73
2023-03-30T10:04:07.999Z,70.23
2023-03-30T10:06:46.424Z,69.39
2023-03-30T10:09:21.244Z,69.72
2023-03-30T10:11:56.568Z,70.61
2023-03-30T10:14:31.797Z,70.83
2023-03-30T10:17:06.153Z,71.08
2023-03-30T10:22:17.995Z,72.13
2023-03-30T10:24:52.217Z,73.10
2023-03-30T10:27:34.244Z,73.77
2023-03-30T10:30:10.366Z,74.03
2023-03-30T10:32:45.829Z,75.03
2023-03-30T10:35:20.641Z,75.38
2023-03-30T10:37:55.985Z,76.07
2023-03-30T10:40:33.698Z,76.36
2023-03-30T10:43:09.918Z,76.73
2023-03-30T10:45:45.573Z,77.04
2023-03-30T10:48:33.406Z,77.38
2023-03-30T10:51:10.018Z,77.76
2023-03-30T10:53:48.868Z,78.46
2023-03-30T10:56:27.546Z,78.82
2023-03-30T10:59:16.060Z,78.86
2023-03-30T11:01:54.483Z,78.89
2023-03-30T11:04:30.387Z,78.86
2023-03-30T11:07:05.198Z,78.79
2023-03-30T11:09:40.252Z,78.88
2023-03-30T11:12:16.759Z,78.95
2023-03-30T11:14:53.895Z,79.21
2023-03-30T11:17:28.728Z,79.20
2023-03-30T11:20:06.521Z,80.07
2023-03-30T11:22:42.770Z,80.12
2023-03-30T11:25:20.676Z,80.15
2023-03-30T11:27:56.634Z,80.49
2023-03-30T11:30:31.434Z,80.29
2023-03-30T11:33:09.293Z,80.79
2023-03-30T11:35:44.465Z,80.72
2023-03-30T11:38:19.122Z,80.30
2023-03-30T11:40:56.154Z,80.41
2023-03-30T11:43:31.347Z,79.96
2023-03-30T11:46:09.818Z,80.25
2023-03-30T11:48:54.641Z,79.98
2023-03-30T11:51:35.655Z,79.63
2023-03-30T11:54:20.500Z,79.28
2023-03-30T11:56:56.921Z,79.29
2023-03-30T11:59:34.294Z,79.04
2023-03-30T12:02:12.574Z,79.54
2023-03-30T12:04:48.956Z,78.47
2023-03-30T12:07:30.400Z,79.39
2023-03-30T12:10:06.780Z,79.60
2023-03-30T12:12:42.701Z,79.33
2023-03-30T12:15:27.259Z,79.38
2023-03-30T12:18:04.375Z,78.71
2023-03-30T12:20:40.981Z,78.56
2023-03-30T12:23:20.888Z,78.00
2023-03-30T12:26:08.348Z,77.11
2023-03-30T12:29:00.805Z,76.04
2023-03-30T12:31:55.983Z,74.42
2023-03-30T12:34:34.312Z,75.17
2023-03-30T12:37:10.258Z,75.69
2023-03-30T12:39:50.387Z,76.12
2023-03-30T12:42:27.735Z,76.29
2023-03-30T12:45:07.649Z,76.95
2023-03-30T12:47:45.261Z,76.53
2023-03-30T12:50:30.399Z,77.07
2023-03-30T12:53:23.156Z,77.09
2023-03-30T12:56:01.669Z,77.81
2023-03-30T12:58:49.358Z,77.71
2023-03-30T13:01:28.623Z,77.76
2023-03-30T13:04:03.176Z,78.09
2023-03-30T13:06:39.349Z,78.37
2023-03-30T13:09:33.230Z,78.17
2023-03-30T13:12:26.014Z,78.55
2023-03-30T13:14:59.731Z,78.92
2023-03-30T13:17:48.547Z,79.12
2023-03-30T13:23:26.439Z,79.61
2023-03-30T13:26:04.618Z,80.41
2023-03-30T13:28:56.073Z,80.51
2023-03-30T13:31:36.183Z,81.27
2023-03-30T13:34:15.852Z,81.43
2023-03-30T13:36:54.168Z,81.72
2023-03-30T13:39:30.590Z,81.60
2023-03-30T13:42:12.905Z,81.66
2023-03-30T13:44:50.750Z,81.76
2023-03-30T13:47:46.316Z,82.25
2023-03-30T13:50:25.611Z,82.04
2023-03-30T13:53:00.929Z,82.15
2023-03-30T13:55:37.524Z,81.96
2023-03-30T13:58:14.991Z,81.43
2023-03-30T14:00:50.220Z,80.32
2023-03-30T14:03:30.853Z,80.22
2023-03-30T14:06:05.796Z,80.67
2023-03-30T14:08:40.093Z,80.91
2023-03-30T14:11:16.944Z,80.48
2023-03-30T14:13:52.081Z,80.91
2023-03-30T14:16:26.019Z,81.21
2023-03-30T14:19:08.384Z,81.79
2023-03-30T14:21:44.507Z,81.88
2023-03-30T14:24:18.677Z,82.35
2023-03-30T14:26:54.740Z,81.39
2023-03-30T14:29:31.654Z,80.87
2023-03-30T14:32:09.274Z,80.61
2023-03-30T14:34:47.061Z,81.47
2023-03-30T14:37:21.483Z,80.56
2023-03-30T14:39:55.839Z,80.53
2023-03-30T14:42:33.817Z,81.08
2023-03-30T14:45:08.933Z,78.51
2023-03-30T14:47:41.842Z,79.33
2023-03-30T14:50:16.877Z,80.75
2023-03-30T14:52:50.630Z,80.50
2023-03-30T14:55:25.610Z,77.32
2023-03-30T14:57:59.912Z,80.46
2023-03-30T15:00:33.938Z,81.02
2023-03-30T15:03:07.344Z,80.63
2023-03-30T15:05:42.766Z,80.72
2023-03-30T15:08:21.549Z,80.63
2023-03-30T15:10:56.020Z,80.33
2023-03-30T15:13:33.253Z,80.08
2023-03-30T15:16:07.331Z,78.85
2023-03-30T15:18:40.410Z,79.39
2023-03-30T15:21:14.392Z,80.24
2023-03-30T15:23:48.265Z,80.33
2023-03-30T15:26:21.340Z,79.96
2023-03-30T15:28:57.989Z,79.25
2023-03-30T15:31:30.772Z,80.52
2023-03-30T15:34:05.465Z,80.32
2023-03-30T15:36:39.237Z,79.36
2023-03-30T15:39:22.549Z,80.38
2023-03-30T15:42:04.428Z,80.92
2023-03-30T15:44:41.193Z,79.34
2023-03-30T15:47:15.892Z,80.45
2023-03-30T15:49:50.612Z,80.18
2023-03-30T15:52:24.786Z,80.30
2023-03-30T15:54:57.561Z,80.24
2023-03-30T15:57:31.442Z,79.66
2023-03-30T16:00:08.991Z,79.96
2023-03-30T16:02:43.071Z,79.84
2023-03-30T16:05:17.948Z,79.99
2023-03-30T16:07:50.936Z,78.80
2023-03-30T16:10:26.549Z,78.87
2023-03-30T16:13:00.570Z,79.22
2023-03-30T16:15:34.990Z,79.36
2023-03-30T16:18:07.824Z,79.60
2023-03-30T16:20:40.817Z,78.97
2023-03-30T16:23:13.483Z,80.49
2023-03-30T16:25:46.309Z,78.91
2023-03-30T16:28:19.434Z,78.86
2023-03-30T16:30:54.847Z,78.71
2023-03-30T16:33:27.626Z,77.64
2023-03-30T16:36:00.815Z,77.51
2023-03-30T16:38:33.867Z,77.78
2023-03-30T16:41:07.145Z,79.05
2023-03-30T16:43:39.960Z,77.29
2023-03-30T16:46:15.782Z,78.60
2023-03-30T16:48:48.955Z,77.88
2023-03-30T16:51:21.713Z,77.64
2023-03-30T16:53:54.379Z,78.48
2023-03-30T16:56:29.153Z,78.09
2023-03-30T16:59:01.912Z,76.53
2023-03-30T17:01:36.454Z,77.82
2023-03-30T17:04:09.749Z,78.37
2023-03-30T17:06:42.516Z,77.43
2023-03-30T17:09:17.091Z,77.97
2023-03-30T17:11:50.345Z,77.52
2023-03-30T17:14:24.442Z,77.47
2023-03-30T17:16:58.725Z,79.45
2023-03-30T17:19:31.588Z,78.41
2023-03-30T17:22:04.485Z,77.54
2023-03-30T17:24:37.220Z,77.79
2023-03-30T17:27:10.384Z,78.86
2023-03-30T17:29:43.074Z,78.91
2023-03-30T17:32:17.290Z,78.11
2023-03-30T17:34:50.182Z,76.06
2023-03-30T17:37:23.213Z,77.20
2023-03-30T17:39:56.215Z,77.23
2023-03-30T17:42:29.084Z,77.63
2023-03-30T17:45:01.820Z,76.60
2023-03-30T17:47:36.042Z,77.19
2023-03-30T17:50:20.329Z,77.37
2023-03-30T17:52:53.250Z,76.36
2023-03-30T17:55:27.024Z,76.29
2023-03-30T17:58:00.394Z,76.66
2023-03-30T18:00:33.784Z,76.20
2023-03-30T18:03:08.058Z,76.00
2023-03-30T18:05:41.036Z,75.96
2023-03-30T18:08:17.455Z,75.86
2023-03-30T18:10:51.696Z,75.40
2023-03-30T18:13:25.384Z,75.06
2023-03-30T18:15:59.601Z,75.05
2023-03-30T18:18:33.780Z,75.03
2023-03-30T18:21:07.864Z,74.50
2023-03-30T18:23:40.719Z,74.71
2023-03-30T18:26:13.943Z,75.05
2023-03-30T18:28:46.930Z,74.74
2023-03-30T18:31:19.726Z,74.94
2023-03-30T18:33:53.909Z,74.69
2023-03-30T18:36:26.662Z,74.95
2023-03-30T18:39:00.346Z,74.83
2023-03-30T18:41:32.994Z,74.94
2023-03-30T18:44:06.139Z,75.19
2023-03-30T18:46:39.067Z,75.23
2023-03-30T18:49:13.778Z,75.21
2023-03-30T18:51:46.479Z,75.16
2023-03-30T18:54:20.093Z,75.27
2023-03-30T18:56:52.900Z,75.43
2023-03-30T18:59:26.330Z,75.68
2023-03-30T19:01:59.418Z,75.27
2023-03-30T19:04:34.153Z,75.44
2023-03-30T19:07:07.429Z,75.11
2023-03-30T19:09:43.327Z,74.97
2023-03-30T19:12:16.339Z,75.06
2023-03-30T19:14:49.107Z,75.12
2023-03-30T19:17:21.864Z,75.13
2023-03-30T19:19:56.088Z,75.03
2023-03-30T19:22:29.066Z,75.28
2023-03-30T19:25:01.886Z,75.57
2023-03-30T19:27:34.925Z,75.81
2023-03-30T19:30:08.504Z,75.71
2023-03-30T19:32:41.847Z,75.70
2023-03-30T19:35:17.246Z,76.20
2023-03-30T19:37:50.317Z,76.29
2023-03-30T19:40:23.111Z,75.97
2023-03-30T19:42:55.912Z,76.04
2023-03-30T19:45:28.640Z,76.02
2023-03-30T19:48:01.797Z,75.85
2023-03-30T19:50:38.454Z,75.99
2023-03-30T19:53:11.312Z,76.13
2023-03-30T19:55:46.261Z,76.32
2023-03-30T19:58:19.004Z,76.52
2023-03-30T20:00:51.762Z,76.63
2023-03-30T20:03:25.149Z,76.53
2023-03-30T20:05:59.404Z,76.63
2023-03-30T20:08:32.929Z,77.12
2023-03-30T20:11:07.706Z,77.61
2023-03-30T20:13:45.538Z,77.64
2023-03-30T20:16:21.389Z,77.87
2023-03-30T20:18:56.717Z,77.67
2023-03-30T20:21:31.370Z,77.73
2023-03-30T20:24:04.067Z,77.66
2023-03-30T20:26:37.033Z,77.60
2023-03-30T20:29:09.678Z,77.54
2023-03-30T20:31:42.463Z,77.49
2023-03-30T20:34:16.509Z,77.40
2023-03-30T20:36:50.621Z,77.35
2023-03-30T20:39:27.140Z,77.46
2023-03-30T20:42:02.115Z,77.62
2023-03-30T20:44:35.335Z,77.57
2023-03-30T20:47:08.920Z,77.81
2023-03-30T20:49:43.844Z,77.32
2023-03-30T20:52:18.473Z,77.41
2023-03-30T20:54:51.491Z,77.30
2023-03-30T20:57:24.862Z,77.40
2023-03-30T20:59:57.902Z,77.35
2023-03-30T21:02:31.638Z,77.17
2023-03-30T21:05:04.474Z,77.10
2023-03-30T21:07:42.339Z,76.93
2023-03-30T21:10:16.535Z,76.68
2023-03-30T21:12:49.323Z,76.72
2023-03-30T21:15:22.325Z,76.86
2023-03-30T21:17:55.084Z,76.88
2023-03-30T21:20:27.710Z,77.00
2023-03-30T21:23:01.967Z,76.64
2023-03-30T21:25:35.121Z,76.95
2023-03-30T21:28:08.130Z,76.80
2023-03-30T21:30:40.976Z,76.72
2023-03-30T21:33:13.753Z,77.32
2023-03-30T21:35:49.711Z,77.31
2023-03-30T21:38:24.389Z,78.23
2023-03-30T21:40:58.278Z,72.92
2023-03-30T21:43:31.540Z,76.53
2023-03-30T21:46:05.525Z,77.01
2023-03-30T21:48:39.873Z,77.95
2023-03-30T21:51:14.165Z,76.93
2023-03-30T21:53:50.643Z,77.65
2023-03-30T21:56:24.605Z,77.60
2023-03-30T21:58:57.435Z,78.22
2023-03-30T22:01:30.462Z,77.90
2023-03-30T22:04:05.997Z,78.33
2023-03-30T22:06:39.324Z,79.28
2023-03-30T22:09:13.392Z,79.16
2023-03-30T22:11:46.136Z,78.99
2023-03-30T22:14:18.858Z,79.33
2023-03-30T22:16:51.580Z,78.64
2023-03-30T22:19:25.672Z,77.78
2023-03-30T22:21:58.292Z,77.47
2023-03-30T22:24:32.529Z,78.21
2023-03-30T22:27:05.400Z,78.33
2023-03-30T22:29:38.099Z,78.20
2023-03-30T22:32:11.130Z,78.20
2023-03-30T22:34:43.903Z,77.99
2023-03-30T22:37:16.827Z,78.08
2023-03-30T22:39:51.400Z,77.39
2023-03-30T22:42:24.110Z,77.50
2023-03-30T22:44:57.613Z,76.76
2023-03-30T22:47:30.406Z,77.39
2023-03-30T22:50:03.221Z,77.58
2023-03-30T22:52:35.954Z,77.65
2023-03-30T22:55:10.824Z,77.27
2023-03-30T22:57:43.534Z,77.80
2023-03-30T23:00:17.917Z,78.17
2023-03-30T23:02:51.267Z,78.17
2023-03-30T23:05:25.619Z,78.03
2023-03-30T23:07:58.829Z,77.72
2023-03-30T23:10:33.961Z,77.19
2023-03-30T23:13:06.793Z,77.70
2023-03-30T23:15:39.520Z,77.58
2023-03-30T23:18:12.506Z,77.67
2023-03-30T23:20:46.865Z,77.29
2023-03-30T23:23:19.618Z,77.37
2023-03-30T23:25:54.185Z,77.42
2023-03-30T23:28:26.975Z,77.23
2023-03-30T23:30:59.691Z,77.30
2023-03-30T23:33:32.343Z,77.24
2023-03-30T23:36:06.418Z,77.27
2023-03-30T23:38:39.358Z,76.91
2023-03-30T23:41:14.073Z,77.06
2023-03-30T23:43:47.568Z,76.83
2023-03-30T23:46:20.391Z,76.88
2023-03-30T23:48:53.165Z,77.33
2023-03-30T23:51:25.938Z,77.10
2023-03-30T23:54:06.006Z,76.90
2023-03-30T23:56:42.277Z,77.14
2023-03-30T23:59:15.035Z,77.52
